Time;durP1;ratioP1;P1;durP2;ratioP2;P2;SDS_P1;SDS_P2;PMS_P1;PMS_P2;Temp;Humidity;BMP_temperature;BMP_pressure;BME280_temperature;BME280_humidity;BME280_pressure;Samples;Min_cycle;Max_cycle;Signal;HPM_P1;HPM_P2
2021/05/22 00:02:23;;;;;;;3.03;2.33;;;;;;;12.72;63.00;98143.89;1691285;84;21115;-70
2021/05/22 00:04:48;;;;;;;3.00;2.50;;;;;;;12.72;63.19;98147.98;1670675;84;22299;-70
2021/05/22 00:07:14;;;;;;;4.37;2.72;;;;;;;12.73;63.41;98148.91;1689176;84;21098;-70
2021/05/22 00:09:40;;;;;;;3.40;2.60;;;;;;;12.78;63.45;98148.40;1691972;84;21035;-70
2021/05/22 00:12:07;;;;;;;4.03;2.45;;;;;;;12.84;63.38;98144.56;1690018;84;21075;-70
2021/05/22 00:14:32;;;;;;;3.98;2.60;;;;;;;12.91;63.30;98136.84;1690468;84;21643;-70
2021/05/22 00:16:58;;;;;;;3.85;2.40;;;;;;;12.98;63.23;98136.05;1684076;85;21066;-70
2021/05/22 00:19:24;;;;;;;3.30;2.55;;;;;;;13.04;63.13;98139.81;1684371;85;22263;-70
2021/05/22 00:21:50;;;;;;;3.50;2.35;;;;;;;13.11;63.04;98136.89;1684003;85;21512;-70
2021/05/22 00:24:15;;;;;;;3.33;2.45;;;;;;;13.18;62.91;98132.48;1677000;85;21026;-70
2021/05/22 00:26:41;;;;;;;3.30;2.22;;;;;;;13.23;62.89;98136.81;1684344;85;21090;-70
2021/05/22 00:29:07;;;;;;;3.33;2.30;;;;;;;13.28;62.76;98126.00;1684585;85;21599;-71
2021/05/22 00:31:33;;;;;;;3.33;2.42;;;;;;;13.30;62.64;98126.34;1684031;85;21563;-70
2021/05/22 00:33:59;;;;;;;4.08;2.20;;;;;;;13.31;62.54;98123.20;1684587;85;21043;-70
2021/05/22 00:36:24;;;;;;;4.60;2.50;;;;;;;13.33;62.56;98120.78;1684207;85;21163;-71
2021/05/22 00:38:50;;;;;;;3.08;2.35;;;;;;;13.35;62.61;98114.16;1684637;83;21062;-70
2021/05/22 00:41:16;;;;;;;3.12;2.10;;;;;;;13.35;62.61;98112.19;1684131;84;21134;-70
2021/05/22 00:43:42;;;;;;;3.00;2.40;;;;;;;13.35;62.70;98118.24;1684662;85;21047;-71
2021/05/22 00:46:08;;;;;;;2.77;2.05;;;;;;;13.33;62.68;98114.57;1684520;85;21074;-70
2021/05/22 00:48:34;;;;;;;2.65;2.40;;;;;;;13.30;62.70;98105.28;1684390;85;21536;-69
2021/05/22 00:50:59;;;;;;;3.62;2.30;;;;;;;13.26;62.76;98104.63;1684280;85;21201;-70
2021/05/22 00:53:26;;;;;;;4.67;2.37;;;;;;;13.20;62.88;98100.84;1684561;85;21110;-70
2021/05/22 00:55:52;;;;;;;4.28;2.40;;;;;;;13.15;63.13;98101.95;1685087;85;21161;-70
2021/05/22 00:58:18;;;;;;;4.10;2.65;;;;;;;13.06;63.22;98099.84;1684849;85;21099;-70
2021/05/22 01:00:45;;;;;;;4.20;2.55;;;;;;;12.99;63.38;98104.89;1684870;85;21044;-70
2021/05/22 01:03:26;;;;;;;2.90;2.58;;;;;;;12.91;63.54;98107.62;1707111;84;21011;-70
2021/05/22 01:05:52;;;;;;;2.92;2.35;;;;;;;12.85;63.82;98104.65;1706971;84;21105;-70
2021/05/22 01:08:23;;;;;;;2.50;2.10;;;;;;;12.76;64.05;98102.34;1684683;85;21559;-70
2021/05/22 01:13:46;;;;;;;2.85;2.30;;;;;;;12.66;64.35;98097.33;1744269;81;21691;-67
2021/05/22 01:16:12;;;;;;;2.95;2.40;;;;;;;12.60;64.60;98090.84;1754182;81;21186;-68
2021/05/22 01:18:39;;;;;;;2.72;2.33;;;;;;;12.61;64.79;98084.98;1736390;82;21037;-71
2021/05/22 01:21:05;;;;;;;2.50;2.30;;;;;;;12.70;64.78;98074.08;1736602;82;21057;-71
2021/05/22 01:23:42;;;;;;;3.25;2.40;;;;;;;12.80;64.63;98071.09;1736041;82;21117;-69
2021/05/22 01:26:08;;;;;;;4.12;2.33;;;;;;;12.91;64.42;98074.16;1735117;82;21573;-70
2021/05/22 01:28:34;;;;;;;2.45;2.22;;;;;;;12.97;64.31;98068.36;1736239;82;21224;-70
2021/05/22 01:31:00;;;;;;;2.53;2.13;;;;;;;13.02;64.24;98069.97;1733561;82;21089;-70
2021/05/22 01:33:26;;;;;;;2.50;2.30;;;;;;;13.10;64.11;98079.48;1734142;82;22149;-70
2021/05/22 01:35:52;;;;;;;2.35;2.15;;;;;;;13.17;63.97;98080.49;1736322;82;20978;-70
2021/05/22 01:38:18;;;;;;;3.08;2.37;;;;;;;13.22;63.80;98062.25;1736526;82;21013;-70
2021/05/22 01:40:44;;;;;;;2.80;2.30;;;;;;;13.22;63.83;98060.89;1724298;82;21546;-70
2021/05/22 01:43:09;;;;;;;2.75;2.10;;;;;;;13.18;63.84;98042.52;1736223;82;21057;-70
2021/05/22 01:45:40;;;;;;;2.62;2.42;;;;;;;13.14;63.97;98032.28;1732141;82;21025;-70
2021/05/22 01:48:06;;;;;;;3.35;2.22;;;;;;;13.10;64.02;98043.30;1682890;84;21067;-70
2021/05/22 01:50:33;;;;;;;3.70;2.50;;;;;;;13.06;64.17;98045.33;1736572;82;21017;-70
2021/05/22 01:53:00;;;;;;;3.00;2.30;;;;;;;13.02;64.33;98046.80;1732631;82;21065;-70
2021/05/22 01:55:26;;;;;;;2.55;2.35;;;;;;;12.98;64.51;98046.11;1704897;84;21064;-70
2021/05/22 01:57:52;;;;;;;4.33;2.37;;;;;;;12.93;64.55;98039.84;1705469;83;21578;-70
2021/05/22 02:00:18;;;;;;;3.47;2.27;;;;;;;12.90;64.67;98043.39;1723967;82;21099;-70
2021/05/22 02:02:48;;;;;;;2.30;2.10;;;;;;;12.87;64.76;98053.19;1736467;82;21069;-69
2021/05/22 02:05:15;;;;;;;4.62;2.65;;;;;;;12.85;64.85;98050.75;1704981;84;21589;-70
2021/05/22 02:07:41;;;;;;;4.15;2.27;;;;;;;12.81;65.01;98040.52;1704822;84;21021;-70
2021/05/22 02:10:08;;;;;;;3.35;2.40;;;;;;;12.77;65.11;98037.90;1736128;82;21037;-70
2021/05/22 02:12:33;;;;;;;3.08;2.65;;;;;;;12.73;65.29;98039.17;1720458;82;21591;-71
2021/05/22 02:14:59;;;;;;;3.52;2.87;;;;;;;12.67;65.39;98037.56;1698251;84;21110;-70
2021/05/22 02:17:25;;;;;;;4.78;3.55;;;;;;;12.60;65.60;98039.88;1698093;84;21558;-70
2021/05/22 02:19:52;;;;;;;4.30;3.02;;;;;;;12.51;65.87;98039.69;1698131;84;20990;-71
2021/05/22 02:22:21;;;;;;;3.67;3.27;;;;;;;12.45;66.00;98040.03;1698462;84;21162;-70
2021/05/22 02:24:49;;;;;;;6.28;3.77;;;;;;;12.36;66.22;98032.47;1698350;84;21107;-70
2021/05/22 02:27:15;;;;;;;5.25;3.87;;;;;;;12.25;66.58;98033.88;1749787;80;21170;-69
2021/05/22 02:29:41;;;;;;;6.47;4.22;;;;;;;12.16;66.86;98038.56;1754012;82;20985;-70
2021/05/22 02:32:07;;;;;;;4.15;3.75;;;;;;;12.09;67.11;98039.50;1753507;81;21121;-69
2021/05/22 02:34:39;;;;;;;4.35;3.52;;;;;;;12.03;67.42;98046.64;1754688;82;21055;-70
2021/05/22 02:37:05;;;;;;;3.98;3.30;;;;;;;11.97;67.65;98048.30;1728816;83;21125;-71
2021/05/22 02:39:31;;;;;;;3.52;3.20;;;;;;;11.89;67.92;98051.01;1731738;82;21098;-71
2021/05/22 02:41:59;;;;;;;4.42;3.35;;;;;;;11.83;68.26;98050.70;1754275;82;21091;-70
2021/05/22 02:44:25;;;;;;;6.55;3.30;;;;;;;11.78;68.53;98049.84;1706559;83;21022;-70
2021/05/22 02:46:51;;;;;;;3.85;3.27;;;;;;;11.73;68.86;98051.69;1703862;83;21109;-70
2021/05/22 02:49:18;;;;;;;4.53;3.12;;;;;;;11.68;69.18;98047.53;1698415;84;21040;-71
2021/05/22 02:51:45;;;;;;;;;;;;;;;11.64;69.48;98041.38;1700920;83;21084;-70
2021/05/22 02:54:11;;;;;;;3.60;3.30;;;;;;;11.64;69.51;98033.83;1753795;81;20232;-70
2021/05/22 02:56:37;;;;;;;3.65;3.17;;;;;;;11.62;69.42;98044.34;1727449;83;21065;-70
2021/05/22 02:59:03;;;;;;;4.30;3.37;;;;;;;11.56;69.88;98035.31;1728968;83;21023;-71
2021/05/22 03:01:30;;;;;;;4.67;3.33;;;;;;;11.58;70.20;98031.43;1697921;83;21061;-70
2021/05/22 03:03:56;;;;;;;4.80;3.30;;;;;;;11.59;70.40;98026.16;1750218;82;21075;-70
2021/05/22 03:06:23;;;;;;;3.72;3.35;;;;;;;11.61;70.55;98034.67;1753159;82;21055;-70
2021/05/22 03:08:49;;;;;;;4.75;3.60;;;;;;;11.65;70.64;98034.77;1706345;83;21385;-70
2021/05/22 03:11:15;;;;;;;3.67;3.10;;;;;;;11.81;70.61;98032.67;1729150;83;21467;-70
2021/05/22 03:13:41;;;;;;;3.30;3.00;;;;;;;12.02;70.37;98034.20;1700756;84;21100;-72
2021/05/22 03:16:07;;;;;;;3.30;3.00;;;;;;;12.25;69.98;98023.78;1701860;84;21620;-71
2021/05/22 03:18:33;;;;;;;4.67;3.30;;;;;;;12.37;69.50;98025.82;1701521;84;21105;-71
2021/05/22 03:20:59;;;;;;;4.10;3.70;;;;;;;12.42;69.23;98014.42;1732625;83;21037;-70
2021/05/22 03:23:25;;;;;;;3.62;3.33;;;;;;;12.47;69.20;98018.60;1732319;83;21061;-72
2021/05/22 03:25:51;;;;;;;4.15;3.60;;;;;;;12.53;69.07;98020.97;1701133;84;21069;-70
2021/05/22 03:28:16;;;;;;;4.62;4.05;;;;;;;12.54;68.94;98013.56;1732559;83;21578;-71
2021/05/22 03:30:42;;;;;;;6.08;4.75;;;;;;;12.59;68.88;98011.69;1732651;83;21665;-71
2021/05/22 03:33:08;;;;;;;4.10;3.70;;;;;;;12.83;68.83;98010.30;1732676;82;21049;-70
2021/05/22 03:35:33;;;;;;;3.45;3.15;;;;;;;12.83;68.83;98010.30;1730546;83;21082;-70
2021/05/22 03:37:59;;;;;;;3.50;3.20;;;;;;;12.99;68.29;98015.55;1732732;83;21085;-71
2021/05/22 03:40:25;;;;;;;4.75;3.60;;;;;;;13.13;68.03;98017.14;1732666;83;21093;-71
2021/05/22 03:42:51;;;;;;;3.50;3.20;;;;;;;13.28;67.72;98016.92;1732633;83;21663;-71
2021/05/22 03:45:17;;;;;;;4.30;3.00;;;;;;;13.42;67.43;98017.92;1731976;83;21400;-71
2021/05/22 03:47:42;;;;;;;3.33;2.75;;;;;;;13.57;67.04;98005.23;1732000;83;21656;-71
2021/05/22 03:50:09;;;;;;;3.60;2.60;;;;;;;13.72;66.56;98009.84;1731989;83;21017;-70
2021/05/22 03:52:35;;;;;;;4.00;2.62;;;;;;;13.86;66.21;98005.14;1732726;81;21574;-71
2021/05/22 03:55:01;;;;;;;2.80;2.52;;;;;;;13.99;65.84;98008.64;1731834;83;21298;-70
2021/05/22 03:57:26;;;;;;;3.83;2.80;;;;;;;14.10;65.61;98013.78;1732131;83;21053;-71
2021/05/22 03:59:54;;;;;;;3.67;2.75;;;;;;;14.23;65.10;98017.27;1732676;83;20946;-70
2021/05/22 04:02:20;;;;;;;3.40;2.70;;;;;;;14.37;64.84;98012.72;1700377;84;22427;-71
2021/05/22 04:04:45;;;;;;;3.05;2.75;;;;;;;14.50;64.65;98017.41;1732118;83;21112;-72
2021/05/22 04:07:11;;;;;;;3.17;2.52;;;;;;;14.62;64.06;98013.91;1732020;83;21479;-71
2021/05/22 04:09:37;;;;;;;2.83;2.62;;;;;;;14.76;63.69;98016.77;1731764;83;21062;-71
2021/05/22 04:12:03;;;;;;;4.05;2.60;;;;;;;14.90;63.54;98015.55;1730927;83;21101;-71
2021/05/22 04:14:29;;;;;;;3.27;2.58;;;;;;;15.06;63.15;98025.72;1736266;82;21073;-71
2021/05/22 04:16:55;;;;;;;2.85;2.30;;;;;;;15.23;62.58;98024.17;1736167;82;21161;-71
2021/05/22 04:19:21;;;;;;;3.92;2.52;;;;;;;15.43;61.99;98027.95;1735742;82;21530;-70
2021/05/22 04:21:46;;;;;;;4.12;2.42;;;;;;;15.62;61.21;98025.48;1704788;83;21073;-70
2021/05/22 04:24:12;;;;;;;2.85;2.10;;;;;;;15.81;60.62;98024.25;1735900;82;21085;-70
2021/05/22 04:26:38;;;;;;;3.40;2.20;;;;;;;15.98;60.03;98021.44;1736223;82;21323;-71
2021/05/22 04:29:04;;;;;;;3.20;2.30;;;;;;;16.12;59.57;98018.17;1736456;82;21042;-70
2021/05/22 04:31:30;;;;;;;3.37;2.47;;;;;;;16.21;59.21;98020.17;1704707;84;21514;-70
2021/05/22 04:33:55;;;;;;;3.77;2.77;;;;;;;16.30;58.84;98027.66;1704749;83;22422;-71
2021/05/22 04:36:21;;;;;;;2.58;2.37;;;;;;;16.35;58.37;98020.22;1736464;82;21014;-71
2021/05/22 04:38:47;;;;;;;2.85;2.40;;;;;;;16.40;58.28;98019.63;1705120;84;21080;-70
2021/05/22 04:41:13;;;;;;;4.08;2.60;;;;;;;16.42;58.12;98022.66;1736583;82;21002;-71
2021/05/22 04:43:38;;;;;;;3.70;2.30;;;;;;;16.44;57.90;98025.71;1736111;82;21060;-71
2021/05/22 04:46:04;;;;;;;2.50;2.27;;;;;;;16.47;57.78;98022.06;1734502;82;21110;-70
2021/05/22 04:48:30;;;;;;;5.78;2.80;;;;;;;16.51;57.60;98022.70;1736505;82;21050;-70
2021/05/22 04:50:56;;;;;;;4.20;2.40;;;;;;;16.61;57.59;98030.31;1736393;82;21037;-70
2021/05/22 04:53:23;;;;;;;3.35;2.70;;;;;;;16.74;57.41;98032.94;1732546;82;21050;-70
2021/05/22 04:55:48;;;;;;;3.67;2.43;;;;;;;17.01;56.73;98032.23;1736042;82;21025;-71
2021/05/22 04:58:14;;;;;;;4.87;2.10;;;;;;;17.01;56.73;98032.23;1736287;82;21550;-71
2021/05/22 05:00:40;;;;;;;3.47;2.40;;;;;;;17.14;55.90;98034.22;1735818;82;21009;-70
2021/05/22 05:03:06;;;;;;;2.87;2.05;;;;;;;17.27;55.81;98040.93;1735769;81;21089;-71
2021/05/22 05:05:31;;;;;;;4.12;2.50;;;;;;;17.46;55.45;98038.32;1735984;82;21503;-71
2021/05/22 05:07:57;;;;;;;3.33;2.60;;;;;;;17.68;54.93;98031.88;1736131;82;21082;-70
2021/05/22 05:10:23;;;;;;;3.40;2.67;;;;;;;17.94;54.53;98030.91;1736368;82;21005;-71
2021/05/22 05:12:49;;;;;;;3.27;2.70;;;;;;;18.26;53.71;98025.91;1705216;83;21157;-71
2021/05/22 05:15:15;;;;;;;4.17;3.10;;;;;;;18.59;53.25;98028.63;1689574;82;21144;-72
2021/05/22 05:17:40;;;;;;;6.40;2.90;;;;;;;18.96;52.50;98030.56;1736322;82;21694;-70
2021/05/22 05:20:08;;;;;;;4.28;2.80;;;;;;;19.27;51.60;98030.77;1736220;82;21021;-70
2021/05/22 05:22:34;;;;;;;3.72;2.70;;;;;;;19.54;51.02;98036.64;1736233;82;21025;-70
2021/05/22 05:24:59;;;;;;;3.15;2.40;;;;;;;19.74;50.41;98029.11;1736100;82;21033;-71
2021/05/22 05:27:25;;;;;;;3.30;2.00;;;;;;;19.88;50.01;98030.34;1735590;81;21077;-71
2021/05/22 05:29:51;;;;;;;3.92;2.10;;;;;;;19.88;49.54;98028.96;1705204;84;21510;-70
2021/05/22 05:32:17;;;;;;;2.20;2.00;;;;;;;19.83;49.63;98028.25;1731740;81;21128;-71
2021/05/22 05:34:43;;;;;;;3.45;2.17;;;;;;;19.84;49.61;98030.55;1735726;82;21087;-70
2021/05/22 05:37:09;;;;;;;3.40;2.25;;;;;;;19.96;48.92;98036.36;1705599;83;21100;-71
2021/05/22 05:39:35;;;;;;;2.67;2.10;;;;;;;19.92;48.31;98041.33;1735926;82;21589;-71
2021/05/22 05:42:01;;;;;;;3.37;2.08;;;;;;;19.82;48.17;98034.38;1735701;82;21006;-71
2021/05/22 05:44:27;;;;;;;4.92;2.17;;;;;;;19.80;48.22;98025.08;1705463;84;21549;-70
2021/05/22 05:46:53;;;;;;;4.97;2.20;;;;;;;19.85;48.26;98036.81;1736255;82;21129;-68
2021/05/22 05:49:18;;;;;;;4.60;2.00;;;;;;;19.91;47.73;98030.77;1735215;81;22252;-68
2021/05/22 05:51:44;;;;;;;3.00;2.15;;;;;;;19.84;47.44;98029.16;1736418;82;21415;-68
2021/05/22 05:54:10;;;;;;;4.78;2.50;;;;;;;19.79;47.66;98033.96;1735670;82;21091;-68
2021/05/22 05:56:36;;;;;;;3.90;2.40;;;;;;;19.67;47.38;98028.89;1705323;84;21640;-70
2021/05/22 05:59:01;;;;;;;4.60;2.55;;;;;;;19.52;47.69;98032.22;1735728;82;21049;-70
2021/05/22 06:01:27;;;;;;;4.15;2.45;;;;;;;19.42;48.11;98037.03;1736048;82;21052;-69
2021/05/22 06:03:53;;;;;;;3.12;2.02;;;;;;;19.34;48.28;98029.63;1735996;82;21116;-69
2021/05/22 06:06:21;;;;;;;3.58;2.20;;;;;;;19.28;48.36;98039.16;1736357;82;21053;-68
2021/05/22 06:08:47;;;;;;;2.77;2.20;;;;;;;19.22;48.78;98036.30;1735908;82;21054;-69
2021/05/22 06:11:15;;;;;;;2.52;2.10;;;;;;;19.13;48.83;98032.26;1735799;82;21022;-70
2021/05/22 06:13:42;;;;;;;3.02;2.20;;;;;;;18.98;48.43;98032.83;1735796;81;21053;-68
2021/05/22 06:18:36;;;;;;;5.28;2.17;;;;;;;18.50;49.51;98022.58;1736131;81;21061;-70
2021/05/22 06:21:03;;;;;;;3.85;2.40;;;;;;;18.33;50.03;98024.96;1705208;84;21549;-69
2021/05/22 06:23:29;;;;;;;3.58;2.55;;;;;;;18.23;50.33;98020.73;1704947;83;21097;-69
2021/05/22 06:25:54;;;;;;;3.92;2.42;;;;;;;18.23;50.49;98023.47;1736853;81;22225;-69
2021/05/22 06:28:20;;;;;;;3.17;2.85;;;;;;;18.17;50.38;98034.34;1750857;81;21569;-69
2021/05/22 06:30:47;;;;;;;3.22;2.10;;;;;;;18.08;50.65;98039.09;1747202;81;21045;-69
2021/05/22 06:33:13;;;;;;;3.33;2.30;;;;;;;18.07;50.85;98038.96;1736519;81;21101;-69
2021/05/22 06:35:38;;;;;;;4.40;2.60;;;;;;;18.21;50.77;98034.16;1721495;82;21085;-68
2021/05/22 06:38:04;;;;;;;4.08;2.30;;;;;;;18.39;50.77;98031.34;1735398;82;21548;-69
2021/05/22 06:40:30;;;;;;;3.67;2.22;;;;;;;18.44;50.42;98022.29;1735139;82;21061;-69
2021/05/22 06:42:56;;;;;;;3.50;2.70;;;;;;;18.38;50.54;98020.17;1736018;81;21088;-69
2021/05/22 06:45:24;;;;;;;3.30;2.40;;;;;;;18.38;49.91;98011.93;1736081;82;21009;-69
2021/05/22 06:47:49;;;;;;;3.62;2.52;;;;;;;18.48;50.21;98011.89;1735802;82;21633;-70
2021/05/22 06:50:15;;;;;;;2.70;2.08;;;;;;;18.60;50.32;98015.77;1735335;82;21057;-69
2021/05/22 06:52:41;;;;;;;3.00;2.02;;;;;;;18.74;49.92;98009.42;1697641;84;22240;-69
2021/05/22 06:55:07;;;;;;;5.00;2.12;;;;;;;18.87;49.56;98010.59;1735658;82;21507;-68
2021/05/22 06:57:33;;;;;;;4.00;2.60;;;;;;;18.97;49.08;98018.94;1735659;82;21647;-69
2021/05/22 06:59:59;;;;;;;4.47;2.40;;;;;;;19.09;48.85;98012.41;1736402;82;21041;-69
2021/05/22 07:02:25;;;;;;;4.17;2.50;;;;;;;19.23;48.69;98028.20;1735190;82;21055;-70
2021/05/22 07:04:51;;;;;;;3.83;2.37;;;;;;;19.51;48.54;98034.22;1734946;82;20974;-69
2021/05/22 07:07:17;;;;;;;3.22;2.30;;;;;;;19.96;48.00;98036.36;1735852;82;20986;-70
2021/05/22 07:09:43;;;;;;;2.98;2.10;;;;;;;20.48;46.68;98033.75;1705124;84;21077;-68
2021/05/22 07:12:13;;;;;;;3.12;2.15;;;;;;;20.93;45.87;98043.41;1731290;82;21305;-68
2021/05/22 07:14:37;;;;;;;3.08;2.15;;;;;;;21.20;45.46;98030.42;1685745;84;21147;-69
2021/05/22 07:17:02;;;;;;;2.52;2.00;;;;;;;21.44;44.50;98027.41;1734590;82;21496;-69
2021/05/22 07:19:28;;;;;;;2.67;2.10;;;;;;;21.59;43.99;98021.79;1733304;82;21062;-68
2021/05/22 07:21:54;;;;;;;5.30;2.30;;;;;;;21.64;44.08;98019.08;1733417;82;21340;-69
2021/05/22 07:24:20;;;;;;;3.20;2.20;;;;;;;21.71;43.92;98012.34;1734137;82;21077;-68
2021/05/22 07:26:47;;;;;;;3.55;2.20;;;;;;;21.84;44.01;98007.80;1703438;84;21522;-67
2021/05/22 07:29:13;;;;;;;3.20;2.30;;;;;;;21.91;43.41;98013.65;1704155;84;21125;-67
2021/05/22 07:31:43;;;;;;;2.20;1.95;;;;;;;22.05;43.03;98018.16;1721414;82;21463;-68
2021/05/22 07:34:09;;;;;;;4.83;2.12;;;;;;;22.17;42.84;98007.29;1732551;81;21038;-68
2021/05/22 07:36:37;;;;;;;2.10;1.90;;;;;;;22.32;42.31;97998.25;1702708;84;21063;-68
2021/05/22 07:39:04;;;;;;;3.33;1.90;;;;;;;22.39;41.96;97988.09;1733976;82;21590;-69
2021/05/22 07:41:29;;;;;;;4.25;2.05;;;;;;;22.46;41.53;97979.21;1735027;82;21050;-69
2021/05/22 07:43:55;;;;;;;2.40;1.80;;;;;;;22.82;41.30;97968.66;1734342;82;21085;-69
2021/05/22 07:46:21;;;;;;;2.33;1.92;;;;;;;23.22;40.64;97970.94;1733969;82;21075;-68
2021/05/22 07:48:47;;;;;;;4.60;2.17;;;;;;;23.56;40.07;97964.04;1733489;82;21069;-69
2021/05/22 07:51:14;;;;;;;2.20;1.90;;;;;;;23.80;39.64;97960.05;1733913;81;20994;-68
2021/05/22 07:53:40;;;;;;;3.70;2.02;;;;;;;23.97;39.61;97953.09;1699315;83;21101;-69
2021/05/22 07:56:06;;;;;;;2.45;1.80;;;;;;;24.14;38.94;97960.73;1700562;84;21083;-68
2021/05/22 07:58:32;;;;;;;4.97;2.27;;;;;;;24.15;39.11;97963.02;1695290;84;21087;-68
2021/05/22 08:00:58;;;;;;;2.80;1.90;;;;;;;24.25;39.16;97964.13;1694412;84;21099;-68
2021/05/22 08:03:23;;;;;;;3.25;1.82;;;;;;;24.18;38.47;97954.95;1699016;84;21091;-69
2021/05/22 08:05:49;;;;;;;2.22;1.92;;;;;;;24.04;38.30;97951.95;1734429;82;21064;-68
2021/05/22 08:08:15;;;;;;;2.60;1.85;;;;;;;23.91;38.18;97944.78;1734169;82;21078;-68
2021/05/22 08:10:40;;;;;;;2.77;2.08;;;;;;;23.80;38.05;97951.73;1703744;84;21057;-68
2021/05/22 08:13:09;;;;;;;3.60;1.80;;;;;;;23.68;38.00;97945.39;1734470;82;21407;-68
2021/05/22 08:15:34;;;;;;;3.75;2.37;;;;;;;23.68;38.09;97955.87;1735008;81;21725;-68
2021/05/22 08:18:00;;;;;;;3.87;2.40;;;;;;;23.76;38.03;97955.38;1735622;82;21057;-69
2021/05/22 08:20:25;;;;;;;4.35;2.10;;;;;;;23.82;38.43;97960.30;1735746;82;21029;-68
2021/05/22 08:22:51;;;;;;;3.52;2.20;;;;;;;23.95;38.33;97973.00;1735683;82;21005;-69
2021/05/22 08:25:17;;;;;;;6.12;2.33;;;;;;;24.09;38.12;97966.44;1735738;81;21597;-68
2021/05/22 08:27:43;;;;;;;4.47;2.10;;;;;;;24.08;37.80;97975.26;1735951;82;21069;-68
2021/05/22 08:30:10;;;;;;;2.97;2.30;;;;;;;23.95;37.99;97953.59;1733950;81;21101;-68
2021/05/22 08:32:36;;;;;;;;;;;;;;;23.85;38.42;97957.91;1738231;82;21037;-68
2021/05/22 08:35:02;;;;;;;4.28;2.00;;;;;;;23.97;38.73;97949.68;1731188;83;20219;-69
2021/05/22 08:37:28;;;;;;;4.12;1.90;;;;;;;24.11;38.61;97962.51;1735693;82;21008;-69
2021/05/22 08:39:54;;;;;;;2.87;1.95;;;;;;;24.19;37.82;97959.23;1719469;82;21077;-69
2021/05/22 08:42:21;;;;;;;3.95;1.90;;;;;;;24.27;37.28;97968.54;1735889;82;21109;-69
2021/05/22 08:44:48;;;;;;;2.67;1.80;;;;;;;24.29;36.97;97960.47;1705324;84;21092;-68
2021/05/22 08:47:14;;;;;;;3.42;2.00;;;;;;;24.29;36.73;97954.92;1735965;82;21069;-69
2021/05/22 08:49:43;;;;;;;3.62;1.65;;;;;;;24.28;36.94;97960.33;1735571;82;21065;-68
2021/05/22 08:52:11;;;;;;;3.92;1.87;;;;;;;24.25;36.78;97956.55;1720432;82;22251;-68
2021/05/22 08:54:37;;;;;;;4.35;2.05;;;;;;;24.16;36.95;97962.38;1734603;82;21097;-69
2021/05/22 08:57:02;;;;;;;5.72;2.42;;;;;;;24.18;37.08;97959.86;1735856;82;21452;-68
2021/05/22 08:59:28;;;;;;;3.40;1.80;;;;;;;24.37;37.09;97942.78;1734010;81;21057;-69
2021/05/22 09:01:55;;;;;;;3.75;1.75;;;;;;;24.55;36.79;97949.82;1735342;82;21026;-69
2021/05/22 09:04:21;;;;;;;3.60;1.95;;;;;;;24.70;36.54;97948.11;1735851;81;21069;-69
2021/05/22 09:07:03;;;;;;;5.60;1.85;;;;;;;24.79;36.41;97958.91;1735724;82;21010;-69
2021/05/22 09:09:38;;;;;;;5.95;1.77;;;;;;;24.81;35.92;97946.66;1733958;81;21101;-69
2021/05/22 09:12:04;;;;;;;3.35;1.95;;;;;;;24.64;36.57;97954.33;1732655;82;21605;-69
2021/05/22 09:14:41;;;;;;;3.52;1.75;;;;;;;24.61;36.74;97958.13;1735820;82;21614;-69
2021/05/22 09:17:08;;;;;;;4.08;1.90;;;;;;;24.71;36.74;97969.04;1698583;84;21631;-69
2021/05/22 09:19:34;;;;;;;;;;;;;;;24.73;36.79;97968.55;1738585;82;21438;-70
2021/05/22 09:22:15;;;;;;;5.67;1.92;;;;;;;24.63;36.52;97954.19;1730042;83;20299;-69
2021/05/22 09:24:54;;;;;;;1.70;1.60;;;;;;;24.34;36.43;97967.39;1707855;82;21685;-70
2021/05/22 09:27:20;;;;;;;3.37;1.80;;;;;;;24.18;36.63;97966.05;1734224;81;21049;-71
2021/05/22 09:29:47;;;;;;;3.83;1.72;;;;;;;23.98;36.70;97952.59;1706638;83;21107;-70
2021/05/22 09:32:13;;;;;;;4.33;1.98;;;;;;;23.99;36.88;97955.48;1729942;82;21080;-69
2021/05/22 09:34:39;;;;;;;6.03;2.40;;;;;;;23.93;37.05;97954.74;1735403;81;21101;-70
2021/05/22 09:37:12;;;;;;;8.50;2.90;;;;;;;23.88;36.86;97937.48;1735081;82;21065;-71
2021/05/22 09:39:46;;;;;;;3.50;2.55;;;;;;;23.63;37.30;97948.94;1736500;82;21760;-71
2021/05/22 09:42:12;;;;;;;6.22;2.70;;;;;;;23.47;37.57;97939.36;1736196;80;21064;-71
2021/05/22 09:44:38;;;;;;;3.40;2.33;;;;;;;23.39;38.02;97950.19;1768406;80;21656;-70
2021/05/22 09:47:04;;;;;;;5.17;2.70;;;;;;;23.36;37.81;97953.96;1763225;80;21629;-71
2021/05/22 09:49:35;;;;;;;4.33;2.60;;;;;;;23.26;37.81;97952.69;1766210;80;21171;-70
2021/05/22 09:52:11;;;;;;;3.92;2.60;;;;;;;23.20;37.82;97940.84;1764452;80;21066;-71
2021/05/22 09:55:15;;;;;;;5.92;2.52;;;;;;;23.06;38.20;97935.66;1761716;80;21163;-72
2021/05/22 09:57:44;;;;;;;27.95;7.65;;;;;;;22.86;38.49;97927.52;1705763;83;21608;-70
2021/05/22 10:00:17;;;;;;;17.80;4.50;;;;;;;22.58;39.00;97928.94;1688281;84;21111;-70
2021/05/22 10:02:46;;;;;;;3.30;2.27;;;;;;;22.37;39.49;97922.06;1687274;84;21020;-70
2021/05/22 10:05:33;;;;;;;146.87;24.50;;;;;;;22.24;39.99;97926.67;1705113;83;21159;-69
2021/05/22 10:07:59;;;;;;;3.98;2.17;;;;;;;22.19;40.24;97926.02;1716752;83;21016;-69
2021/05/22 10:10:44;;;;;;;52.98;10.13;;;;;;;22.14;40.21;97920.55;1694914;83;21083;-69
2021/05/22 10:13:09;;;;;;;12.73;3.45;;;;;;;22.33;40.33;97926.45;1705160;83;21079;-70
2021/05/22 10:15:35;;;;;;;14.35;5.08;;;;;;;22.65;39.74;97904.20;1689350;83;21149;-71
2021/05/22 10:18:02;;;;;;;5.72;2.20;;;;;;;23.00;39.51;97934.91;1706764;83;21082;-70
2021/05/22 10:20:28;;;;;;;6.58;2.72;;;;;;;22.91;39.54;97930.94;1715211;83;21195;-71
2021/05/22 10:22:54;;;;;;;4.47;2.70;;;;;;;22.72;40.01;97932.77;1714521;83;21621;-71
2021/05/22 10:25:20;;;;;;;4.17;2.47;;;;;;;22.38;40.79;97923.59;1714820;83;21062;-71
2021/05/22 10:27:46;;;;;;;3.70;2.60;;;;;;;21.96;41.57;97934.75;1714227;83;21002;-70
2021/05/22 10:30:13;;;;;;;4.90;2.95;;;;;;;21.68;42.37;97945.00;1708525;82;21086;-71
2021/05/22 10:32:39;;;;;;;4.42;2.50;;;;;;;21.47;43.01;97954.02;1714185;82;21033;-71
2021/05/22 10:35:09;;;;;;;3.37;2.65;;;;;;;21.17;43.67;97949.91;1713252;83;21141;-70
2021/05/22 10:37:44;;;;;;;4.37;2.52;;;;;;;20.75;44.45;97954.75;1710494;83;21686;-70
2021/05/22 10:40:14;;;;;;;3.58;2.70;;;;;;;20.36;45.20;97952.25;1712018;83;21066;-70
2021/05/22 10:42:45;;;;;;;4.25;3.10;;;;;;;19.99;46.65;97974.02;1711729;83;21022;-71
2021/05/22 10:45:38;;;;;;;3.98;2.90;;;;;;;19.66;47.82;97970.89;1714921;83;21031;-70
2021/05/22 10:48:10;;;;;;;3.42;2.80;;;;;;;19.29;49.29;97985.02;1677174;84;21059;-70
2021/05/22 10:50:41;;;;;;;4.50;2.95;;;;;;;18.95;50.56;97989.75;1706649;83;21610;-70
2021/05/22 10:53:19;;;;;;;3.62;2.67;;;;;;;18.73;51.47;97990.80;1708530;83;21598;-71
2021/05/22 10:55:45;;;;;;;;;;;;;;;18.40;52.37;97992.98;1694627;83;21100;-69
2021/05/22 10:58:11;;;;;;;5.17;4.65;;;;;;;18.05;52.59;97987.83;1709196;82;20521;-70
2021/05/22 11:00:37;;;;;;;3.98;3.20;;;;;;;17.75;54.21;97994.47;1698722;83;21054;-71
2021/05/22 11:03:11;;;;;;;4.22;3.15;;;;;;;17.50;55.68;97996.36;1714182;83;21069;-71
2021/05/22 11:05:41;;;;;;;4.20;3.30;;;;;;;17.30;56.77;97996.86;1689950;83;21079;-71
2021/05/22 11:08:11;;;;;;;4.62;3.25;;;;;;;17.11;57.98;97997.34;1704541;83;21038;-70
2021/05/22 11:10:43;;;;;;;4.60;3.85;;;;;;;17.00;58.80;98017.00;1707498;83;21090;-70
2021/05/22 11:13:10;;;;;;;4.03;3.62;;;;;;;16.98;59.44;98022.94;1701275;83;21117;-70
2021/05/22 11:15:51;;;;;;;4.35;3.52;;;;;;;16.97;60.03;98004.97;1710541;83;21086;-70
2021/05/22 11:18:19;;;;;;;5.62;3.87;;;;;;;17.01;60.24;98011.05;1703181;83;21005;-70
2021/05/22 11:21:05;;;;;;;4.42;3.83;;;;;;;17.11;60.38;98013.19;1707165;83;21098;-70
2021/05/22 11:23:51;;;;;;;5.45;3.80;;;;;;;17.21;61.11;98005.70;1702155;83;21665;-70
2021/05/22 11:26:19;;;;;;;5.28;4.28;;;;;;;17.40;61.25;98003.08;1714444;83;21069;-70
2021/05/22 11:28:51;;;;;;;4.22;3.83;;;;;;;17.66;61.43;97998.01;1701865;83;21054;-71
2021/05/22 11:31:21;;;;;;;5.20;3.87;;;;;;;17.90;61.49;98001.48;1704217;83;21072;-71
2021/05/22 11:33:47;;;;;;;5.97;3.87;;;;;;;18.01;60.90;98000.38;1697214;83;21010;-70
2021/05/22 11:36:13;;;;;;;4.50;3.80;;;;;;;18.06;60.74;98003.08;1686011;84;21097;-70
2021/05/22 11:38:39;;;;;;;5.25;3.92;;;;;;;18.10;60.34;98004.44;1725429;83;21121;-70
2021/05/22 11:41:06;;;;;;;4.90;3.60;;;;;;;18.12;60.21;98000.62;1721383;83;21059;-71